Time;durP1;ratioP1;P1;durP2;ratioP2;P2;SDS_P1;SDS_P2;PMS_P1;PMS_P2;Temp;Humidity;BMP_temperature;BMP_pressure;BME280_temperature;BME280_humidity;BME280_pressure;Samples;Min_cycle;Max_cycle;Signal;HPM_P1;HPM_P2
2022/08/06 00:00:44;;;;;;;11.20;10.40;;;;;;;19.60;66.87;92710.53;5047889;28;20227;-75
2022/08/06 00:03:09;;;;;;;10.38;9.77;;;;;;;19.37;66.58;92677.66;5048139;28;20181;-75
2022/08/06 00:05:35;;;;;;;11.48;10.38;;;;;;;19.56;67.21;92725.56;5048633;28;20230;-75
2022/08/06 00:08:00;;;;;;;14.82;11.20;;;;;;;19.28;68.89;92696.31;5049328;28;20227;-73
2022/08/06 00:10:26;;;;;;;11.40;10.38;;;;;;;19.48;68.10;92729.06;5048527;28;20293;-74
2022/08/06 00:12:51;;;;;;;9.80;9.10;;;;;;;19.56;67.64;92747.53;5048962;28;20193;-74
2022/08/06 00:15:20;;;;;;;9.60;9.00;;;;;;;19.53;67.65;92744.75;5048289;28;20296;-75
2022/08/06 00:17:46;;;;;;;9.98;9.35;;;;;;;19.53;68.15;92748.19;5046892;28;20226;-74
2022/08/06 00:20:13;;;;;;;9.23;8.63;;;;;;;19.25;68.08;92702.22;5042907;28;20248;-76
2022/08/06 00:22:39;;;;;;;10.23;9.48;;;;;;;19.31;67.28;92718.69;5047638;28;20261;-75
2022/08/06 00:25:05;;;;;;;10.65;9.90;;;;;;;19.25;67.72;92715.47;5043141;28;20221;-76
2022/08/06 00:27:30;;;;;;;10.07;9.48;;;;;;;19.32;67.78;92734.25;5047685;28;20193;-77
2022/08/06 00:29:56;;;;;;;10.18;9.48;;;;;;;18.94;69.65;92683.41;5046133;28;20245;-74
2022/08/06 00:32:21;;;;;;;10.18;9.57;;;;;;;18.76;68.55;92661.66;5047795;28;20209;-75
2022/08/06 00:34:47;;;;;;;9.60;8.55;;;;;;;19.32;68.91;92742.19;5048736;28;20251;-75
2022/08/06 00:37:12;;;;;;;10.52;9.82;;;;;;;19.27;68.35;92745.00;5049526;28;20195;-76
2022/08/06 00:39:37;;;;;;;10.23;9.52;;;;;;;18.99;68.61;92701.72;5052133;28;20284;-75
2022/08/06 00:42:03;;;;;;;10.77;10.07;;;;;;;18.82;68.29;92688.66;5052760;28;20221;-75
2022/08/06 00:44:29;;;;;;;10.20;9.60;;;;;;;19.06;67.43;92715.19;5051855;28;20239;-76
2022/08/06 00:46:54;;;;;;;10.63;10.03;;;;;;;19.03;67.63;92721.16;5052411;28;20188;-75
2022/08/06 00:49:19;;;;;;;10.47;9.70;;;;;;;18.93;67.96;92695.09;5052661;28;20202;-75
2022/08/06 00:51:45;;;;;;;10.57;9.87;;;;;;;19.15;68.39;92742.34;5051900;28;20189;-75
2022/08/06 00:54:10;;;;;;;9.73;9.13;;;;;;;19.19;68.46;92743.25;5051242;28;20200;-77
2022/08/06 00:56:36;;;;;;;9.57;8.97;;;;;;;19.05;68.86;92713.66;5051208;28;20185;-75
2022/08/06 00:59:02;;;;;;;8.93;8.43;;;;;;;19.18;68.70;92742.47;5051443;28;20224;-75
2022/08/06 01:01:27;;;;;;;10.30;9.70;;;;;;;19.01;70.12;92731.28;5047775;28;20243;-75
2022/08/06 01:03:52;;;;;;;9.63;9.07;;;;;;;18.96;70.10;92716.38;5051018;28;20185;-76
2022/08/06 01:06:21;;;;;;;9.73;9.23;;;;;;;18.95;70.41;92728.06;5051175;28;20256;-75
2022/08/06 01:08:46;;;;;;;10.13;9.53;;;;;;;18.83;69.70;92703.44;5051875;28;20176;-75
2022/08/06 01:11:12;;;;;;;9.87;9.27;;;;;;;19.00;69.66;92741.06;5051348;28;20263;-75
2022/08/06 01:13:37;;;;;;;9.03;7.93;;;;;;;19.02;69.14;92743.41;5051854;28;20194;-75
2022/08/06 01:16:10;;;;;;;9.23;8.60;;;;;;;18.65;69.86;92694.91;5047937;28;20225;-75
2022/08/06 01:18:51;;;;;;;9.85;9.20;;;;;;;18.91;69.80;92731.69;5049119;28;20186;-75
2022/08/06 01:21:34;;;;;;;9.05;8.45;;;;;;;18.97;70.10;92740.97;5050990;28;20288;-75
2022/08/06 01:24:32;;;;;;;9.23;8.63;;;;;;;18.98;69.71;92738.00;5049920;28;20193;-76
2022/08/06 01:27:23;;;;;;;9.80;9.10;;;;;;;18.81;69.95;92700.34;5044874;28;20212;-75
2022/08/06 01:29:55;;;;;;;10.03;9.40;;;;;;;18.86;69.81;92708.84;5051270;28;20285;-75
2022/08/06 01:32:35;;;;;;;10.17;9.57;;;;;;;18.96;70.83;92737.53;5050768;28;20197;-77
2022/08/06 01:35:17;;;;;;;9.57;8.97;;;;;;;18.68;72.01;92701.41;5049701;28;20228;-75
2022/08/06 01:37:57;;;;;;;9.87;9.10;;;;;;;18.75;71.87;92714.88;5051548;28;20201;-76
2022/08/06 01:40:27;;;;;;;10.27;9.57;;;;;;;18.75;72.14;92728.09;5048091;28;20258;-75
2022/08/06 01:42:57;;;;;;;10.47;9.77;;;;;;;18.79;71.54;92734.28;5050617;28;20288;-75
2022/08/06 01:45:26;;;;;;;9.93;9.33;;;;;;;18.71;72.61;92721.91;5050973;28;20227;-75
2022/08/06 01:47:56;;;;;;;10.93;10.23;;;;;;;18.86;72.23;92732.66;5049147;28;20288;-75
2022/08/06 01:50:28;;;;;;;9.53;8.93;;;;;;;18.70;71.77;92699.22;5049605;28;20224;-75
2022/08/06 01:52:55;;;;;;;10.13;9.53;;;;;;;18.77;71.67;92736.50;5049786;28;20190;-75
2022/08/06 01:55:21;;;;;;;10.17;9.47;;;;;;;18.24;72.83;92665.06;5050865;28;20243;-76
2022/08/06 01:57:52;;;;;;;10.17;9.47;;;;;;;18.32;72.17;92658.94;5050681;28;20193;-75
2022/08/06 02:00:19;;;;;;;11.02;10.23;;;;;;;18.64;71.80;92716.38;5049575;28;20240;-75
2022/08/06 02:02:46;;;;;;;9.93;9.23;;;;;;;18.82;71.65;92730.97;5050884;28;20194;-75
2022/08/06 02:05:15;;;;;;;9.77;9.17;;;;;;;18.53;72.10;92691.44;5049005;28;20248;-76
2022/08/06 02:07:43;;;;;;;9.37;8.77;;;;;;;18.44;72.17;92661.66;5048886;28;20197;-74
2022/08/06 02:10:11;;;;;;;10.13;9.53;;;;;;;18.74;72.33;92713.34;5046944;28;20300;-76
2022/08/06 02:12:39;;;;;;;10.40;9.43;;;;;;;18.79;71.83;92713.91;5049475;28;20189;-75
2022/08/06 02:15:15;;;;;;;11.33;10.63;;;;;;;18.79;72.04;92715.75;5050314;28;20315;-75
2022/08/06 02:17:53;;;;;;;10.33;9.53;;;;;;;18.56;73.43;92709.28;5050028;28;20219;-75
2022/08/06 02:20:43;;;;;;;10.03;9.43;;;;;;;18.62;73.50;92708.00;5049864;28;20242;-76
2022/08/06 02:23:13;;;;;;;9.20;8.50;;;;;;;18.49;73.07;92688.66;5050758;28;20219;-75
2022/08/06 02:25:41;;;;;;;10.50;9.80;;;;;;;18.25;74.31;92675.31;5049502;28;20205;-75
2022/08/06 02:28:07;;;;;;;10.20;9.53;;;;;;;18.39;73.54;92706.78;5048015;28;20192;-75
2022/08/06 02:30:36;;;;;;;10.13;9.50;;;;;;;18.50;73.62;92695.50;5049679;28;20221;-75
2022/08/06 02:33:02;;;;;;;9.97;9.40;;;;;;;18.18;73.27;92655.78;5049787;28;20195;-76
2022/08/06 02:35:31;;;;;;;9.83;9.10;;;;;;;18.50;73.38;92700.78;5049774;28;20296;-75
2022/08/06 02:38:09;;;;;;;9.43;8.73;;;;;;;18.17;72.94;92649.72;5048802;28;20191;-75
2022/08/06 02:40:40;;;;;;;9.67;8.93;;;;;;;18.46;72.30;92691.94;5049447;28;20833;-75
2022/08/06 02:43:15;;;;;;;9.77;9.07;;;;;;;18.39;73.19;92699.63;5049712;28;20179;-76
2022/08/06 02:46:07;;;;;;;9.97;9.37;;;;;;;18.24;72.51;92665.06;5047586;28;20226;-76
2022/08/06 02:48:51;;;;;;;8.83;8.30;;;;;;;18.29;72.98;92670.16;5049045;28;20200;-75
2022/08/06 02:51:27;;;;;;;10.70;8.50;;;;;;;18.46;72.61;92694.59;5049314;28;20227;-75
2022/08/06 02:54:13;;;;;;;10.00;9.20;;;;;;;18.49;72.99;92706.41;5048791;28;20191;-75
2022/08/06 02:56:44;;;;;;;10.77;10.00;;;;;;;18.48;73.33;92694.28;5044063;28;20295;-76
2022/08/06 02:59:13;;;;;;;9.97;9.27;;;;;;;18.37;74.25;92685.94;5048536;28;20259;-79
2022/08/06 03:01:45;;;;;;;9.57;9.00;;;;;;;18.29;73.97;92688.66;5049931;28;20207;-76
2022/08/06 03:04:12;;;;;;;9.00;8.43;;;;;;;18.29;74.07;92689.41;5049184;28;20225;-76
2022/08/06 03:06:42;;;;;;;9.43;8.93;;;;;;;18.30;74.72;92720.06;5050327;28;20188;-76
2022/08/06 03:09:08;;;;;;;9.77;9.07;;;;;;;17.93;74.89;92654.88;5049047;28;20192;-76
2022/08/06 03:11:35;;;;;;;9.53;9.00;;;;;;;18.13;74.88;92693.75;5048648;28;20272;-75
2022/08/06 03:14:03;;;;;;;9.40;8.90;;;;;;;18.23;75.37;92726.94;5048110;28;20208;-74
2022/08/06 03:16:33;;;;;;;9.97;9.37;;;;;;;18.10;75.04;92704.94;5048109;28;20241;-76
2022/08/06 03:19:00;;;;;;;10.43;9.83;;;;;;;17.90;75.27;92681.19;5048923;28;20267;-75
2022/08/06 03:21:27;;;;;;;10.30;9.70;;;;;;;17.85;75.23;92678.72;5049352;28;20254;-76
2022/08/06 03:23:54;;;;;;;9.40;8.73;;;;;;;18.07;74.92;92707.47;5048649;28;20184;-76
2022/08/06 03:26:20;;;;;;;9.70;9.10;;;;;;;18.15;74.99;92719.84;5049244;28;20228;-75
2022/08/06 03:28:46;;;;;;;9.57;8.77;;;;;;;17.99;75.04;92687.16;5048666;28;20188;-75
2022/08/06 03:31:12;;;;;;;10.77;10.07;;;;;;;17.97;76.19;92697.28;5049214;28;20220;-76
2022/08/06 03:33:38;;;;;;;10.00;9.30;;;;;;;18.23;75.21;92722.44;5049672;28;20251;-75
2022/08/06 03:36:04;;;;;;;9.17;8.67;;;;;;;18.07;75.43;92700.31;5049846;28;20215;-75
2022/08/06 03:38:37;;;;;;;10.07;9.30;;;;;;;18.19;75.71;92716.25;5048605;28;20275;-74
2022/08/06 03:41:04;;;;;;;11.00;10.00;;;;;;;17.90;75.52;92660.78;5048769;28;20450;-74
2022/08/06 03:43:30;;;;;;;10.17;9.47;;;;;;;18.11;75.29;92689.88;5048644;28;20196;-75
2022/08/06 03:46:00;;;;;;;9.90;9.30;;;;;;;17.86;76.14;92651.19;5046014;28;20220;-76
2022/08/06 03:48:32;;;;;;;10.33;9.60;;;;;;;18.32;75.20;92725.03;5048289;28;20181;-77
2022/08/06 03:51:02;;;;;;;10.00;9.03;;;;;;;18.40;75.98;92726.84;5047071;28;20247;-75
2022/08/06 03:53:33;;;;;;;10.83;10.13;;;;;;;18.49;75.55;92728.31;5070996;28;20190;-76
2022/08/06 03:56:01;;;;;;;9.77;9.03;;;;;;;18.46;74.79;92715.75;5045099;28;20220;-75
2022/08/06 03:58:28;;;;;;;10.63;9.93;;;;;;;18.50;75.41;92727.25;5046760;28;20188;-75
2022/08/06 04:01:10;;;;;;;10.73;9.80;;;;;;;18.61;75.11;92727.59;5048369;28;20234;-76
2022/08/06 04:03:37;;;;;;;10.63;9.93;;;;;;;18.67;74.32;92710.44;5047751;28;20190;-76
2022/08/06 04:06:05;;;;;;;10.37;9.57;;;;;;;18.92;73.77;92722.66;5047465;28;20235;-76
2022/08/06 04:08:33;;;;;;;11.30;10.50;;;;;;;18.89;73.86;92718.00;5047351;28;20243;-75
2022/08/06 04:11:00;;;;;;;10.50;9.80;;;;;;;18.95;73.84;92722.78;5047092;28;20875;-75
2022/08/06 04:13:27;;;;;;;9.27;8.65;;;;;;;18.40;73.57;92615.81;5051841;28;20248;-75
2022/08/06 04:15:55;;;;;;;11.17;10.33;;;;;;;18.89;73.66;92681.75;5050717;28;20239;-76
2022/08/06 04:18:24;;;;;;;11.23;10.40;;;;;;;19.27;73.85;92731.78;5052521;28;20204;-75
2022/08/06 04:20:52;;;;;;;10.17;9.57;;;;;;;19.29;74.42;92740.19;5052582;28;20224;-73
2022/08/06 04:23:18;;;;;;;11.07;10.37;;;;;;;19.45;73.70;92738.47;5051912;28;20190;-76
2022/08/06 04:25:49;;;;;;;10.90;10.00;;;;;;;19.48;73.85;92743.09;5051537;28;20230;-76
2022/08/06 04:28:16;;;;;;;10.40;9.70;;;;;;;19.52;72.99;92727.34;5051160;28;20198;-74
2022/08/06 04:30:43;;;;;;;10.55;9.52;;;;;;;19.83;72.40;92744.22;5050749;28;20227;-73
2022/08/06 04:33:13;;;;;;;11.27;10.48;;;;;;;19.98;71.46;92753.38;5051263;28;20189;-72
2022/08/06 04:35:41;;;;;;;11.30;10.50;;;;;;;20.13;71.04;92750.88;5051260;28;20226;-72
2022/08/06 04:38:08;;;;;;;11.68;10.77;;;;;;;20.23;66.79;92726.53;5051225;28;20183;-75
2022/08/06 04:40:34;;;;;;;10.93;10.05;;;;;;;20.37;68.49;92752.72;5050830;28;20239;-72
2022/08/06 04:42:59;;;;;;;12.20;11.13;;;;;;;20.44;68.22;92735.13;5051689;28;21117;-74
2022/08/06 04:45:27;;;;;;;13.95;12.68;;;;;;;20.45;68.89;92734.00;5050561;28;20225;-77
2022/08/06 04:47:53;;;;;;;12.45;11.45;;;;;;;20.79;66.15;92756.59;5051126;28;20193;-76
2022/08/06 04:50:18;;;;;;;11.98;11.10;;;;;;;20.70;66.78;92743.44;5051024;28;20234;-77
2022/08/06 04:52:44;;;;;;;12.70;11.70;;;;;;;20.70;65.09;92742.69;5051706;28;20205;-72
2022/08/06 04:55:09;;;;;;;12.13;11.07;;;;;;;20.72;65.82;92766.22;5051576;28;20237;-72
2022/08/06 04:57:35;;;;;;;13.32;12.32;;;;;;;20.73;65.33;92767.75;5050182;28;20198;-72
2022/08/06 05:00:00;;;;;;;12.45;11.23;;;;;;;20.89;63.66;92761.41;5049140;28;20981;-72
2022/08/06 05:02:25;;;;;;;13.25;12.00;;;;;;;21.01;62.67;92742.03;5050747;28;20218;-72
2022/08/06 05:04:55;;;;;;;13.32;12.32;;;;;;;20.84;64.50;92774.16;5048529;28;20233;-72
2022/08/06 05:07:30;;;;;;;13.13;11.98;;;;;;;21.09;63.97;92775.63;5050450;28;20224;-70
2022/08/06 05:09:58;;;;;;;13.65;12.43;;;;;;;21.20;64.61;92782.00;5050902;28;20240;-73
2022/08/06 05:12:41;;;;;;;14.07;12.20;;;;;;;21.30;64.79;92781.50;5050383;28;20193;-72
2022/08/06 05:15:19;;;;;;;17.25;13.45;;;;;;;21.34;63.96;92782.38;5049656;28;20284;-72
2022/08/06 05:18:16;;;;;;;25.20;16.60;;;;;;;21.30;63.01;92784.16;5049911;28;20229;-71
2022/08/06 05:20:49;;;;;;;29.88;19.15;;;;;;;21.56;61.95;92779.91;5035093;28;20240;-72
2022/08/06 05:23:23;;;;;;;14.48;12.73;;;;;;;21.48;63.17;92766.81;5049084;28;20286;-72
2022/08/06 05:25:49;;;;;;;17.10;12.23;;;;;;;21.95;61.64;92780.91;5048774;28;20286;-72
2022/08/06 05:28:15;;;;;;;14.23;12.93;;;;;;;21.40;62.37;92776.44;5051475;28;20187;-71
2022/08/06 05:30:46;;;;;;;13.63;12.43;;;;;;;21.18;63.87;92774.38;5048293;28;20219;-72
2022/08/06 05:33:11;;;;;;;14.30;13.07;;;;;;;21.46;63.87;92777.00;5049912;28;20280;-72
2022/08/06 05:35:37;;;;;;;13.60;12.38;;;;;;;21.63;62.25;92758.06;5049397;28;20227;-72
2022/08/06 05:38:02;;;;;;;12.65;11.40;;;;;;;22.13;58.94;92776.78;5048904;28;20241;-70
2022/08/06 05:40:33;;;;;;;12.52;11.27;;;;;;;22.30;58.34;92776.41;5048299;28;20233;-72
2022/08/06 05:42:59;;;;;;;12.40;11.35;;;;;;;22.25;58.24;92779.34;5049467;28;20191;-71
2022/08/06 05:45:26;;;;;;;13.43;12.18;;;;;;;22.34;58.96;92790.56;5048148;28;20250;-71
2022/08/06 05:47:55;;;;;;;11.82;11.02;;;;;;;23.35;55.81;92783.97;5050821;28;20282;-71
2022/08/06 05:50:26;;;;;;;12.57;11.10;;;;;;;24.78;49.95;92733.31;5050338;28;21077;-71
2022/08/06 05:53:01;;;;;;;12.23;11.13;;;;;;;28.61;41.52;92798.09;5049316;28;20191;-71
2022/08/06 05:55:32;;;;;;;11.23;10.43;;;;;;;32.04;34.24;92804.16;5049229;28;20765;-72
2022/08/06 05:58:02;;;;;;;10.68;9.73;;;;;;;34.22;29.84;92811.91;5047105;28;20197;-72
2022/08/06 06:00:32;;;;;;;10.52;9.73;;;;;;;36.37;27.53;92821.44;5049868;28;20280;-71
2022/08/06 06:02:59;;;;;;;10.35;9.55;;;;;;;36.22;27.34;92822.28;5049784;28;20185;-72
2022/08/06 06:05:25;;;;;;;13.15;9.57;;;;;;;37.90;24.98;92818.72;5050418;28;20260;-72
2022/08/06 06:07:52;;;;;;;10.15;9.23;;;;;;;37.40;24.82;92822.41;5049283;28;20206;-72
2022/08/06 06:10:18;;;;;;;11.25;10.15;;;;;;;36.68;25.48;92808.81;5049205;28;20233;-74
2022/08/06 06:12:44;;;;;;;10.80;9.40;;;;;;;37.05;25.27;92815.41;5049950;28;20265;-71
2022/08/06 06:15:12;;;;;;;9.63;8.82;;;;;;;37.38;24.64;92821.31;5049721;28;20230;-72
2022/08/06 06:18:00;;;;;;;10.20;9.38;;;;;;;36.88;25.64;92833.06;5048787;28;20220;-70
2022/08/06 06:20:35;;;;;;;9.45;8.68;;;;;;;38.05;24.28;92828.66;5047426;28;20261;-71
2022/08/06 06:23:19;;;;;;;9.05;8.30;;;;;;;37.90;24.25;92814.00;5046571;28;20189;-70
2022/08/06 06:26:15;;;;;;;10.27;9.25;;;;;;;39.55;22.33;92821.16;5045027;28;20218;-71
2022/08/06 06:29:02;;;;;;;9.18;8.48;;;;;;;40.24;21.14;92818.50;5047206;28;20186;-70
2022/08/06 06:31:55;;;;;;;10.52;9.30;;;;;;;39.38;22.28;92811.69;5044222;28;20225;-71
2022/08/06 06:34:36;;;;;;;9.73;8.98;;;;;;;35.88;26.21;92803.09;5046623;28;20186;-71
2022/08/06 06:37:09;;;;;;;10.15;9.35;;;;;;;31.73;32.79;92797.22;5044792;28;20177;-73
2022/08/06 06:39:54;;;;;;;10.65;9.57;;;;;;;29.70;36.19;92777.06;5047185;28;20237;-70
2022/08/06 06:42:29;;;;;;;10.82;9.75;;;;;;;27.05;43.06;92773.19;5042836;28;20190;-71
2022/08/06 06:45:23;;;;;;;10.82;9.77;;;;;;;27.35;42.86;92781.78;5046544;28;20244;-71
2022/08/06 06:48:04;;;;;;;10.68;9.85;;;;;;;25.56;48.35;92765.13;5048367;28;20213;-72
2022/08/06 06:50:34;;;;;;;10.20;9.45;;;;;;;26.38;45.42;92754.78;5048539;28;20227;-71
2022/08/06 06:53:01;;;;;;;10.85;10.05;;;;;;;26.13;46.22;92731.66;5049445;28;20235;-70
2022/08/06 06:55:55;;;;;;;12.00;10.75;;;;;;;25.72;48.41;92762.25;5048988;28;20257;-70
2022/08/06 07:01:18;;;;;;;18.10;16.25;;;;;;;25.23;49.94;92762.47;5996218;23;21325;-70
2022/08/06 07:03:47;;;;;;;11.05;10.13;;;;;;;25.67;49.38;92766.03;4995772;28;20232;-71
2022/08/06 07:06:15;;;;;;;12.00;11.00;;;;;;;25.58;49.70;92762.09;4988101;28;20214;-69
2022/08/06 07:08:45;;;;;;;12.30;11.32;;;;;;;25.91;48.20;92751.34;4990470;28;20231;-68
2022/08/06 07:11:22;;;;;;;11.98;11.07;;;;;;;25.82;48.60;92759.66;5007569;28;20191;-70
2022/08/06 07:13:49;;;;;;;12.18;11.07;;;;;;;25.34;50.09;92755.34;5003217;28;20227;-69
2022/08/06 07:16:18;;;;;;;12.00;10.82;;;;;;;26.04;48.32;92748.03;4988911;28;20211;-68
2022/08/06 07:18:45;;;;;;;11.57;10.52;;;;;;;25.54;50.62;92756.75;4988408;28;20231;-67
2022/08/06 07:21:13;;;;;;;12.50;11.38;;;;;;;25.99;47.83;92745.72;4986945;28;20206;-68
2022/08/06 07:23:40;;;;;;;12.35;11.18;;;;;;;25.91;48.16;92764.72;4991024;28;20239;-68
2022/08/06 07:26:08;;;;;;;11.50;10.57;;;;;;;25.71;50.01;92752.69;5008259;28;20194;-68
2022/08/06 07:28:35;;;;;;;11.85;10.88;;;;;;;26.13;47.65;92759.19;5007548;28;20195;-70
2022/08/06 07:31:05;;;;;;;12.02;11.00;;;;;;;25.92;49.06;92748.28;5008293;28;20227;-69
2022/08/06 07:33:32;;;;;;;11.85;10.90;;;;;;;25.99;49.50;92747.59;5007552;28;20653;-70
2022/08/06 07:35:59;;;;;;;12.98;11.82;;;;;;;25.46;49.25;92736.41;5007840;28;21061;-69
2022/08/06 07:38:28;;;;;;;12.18;11.15;;;;;;;25.63;49.64;92727.00;5007611;28;20198;-68
2022/08/06 07:40:57;;;;;;;12.00;10.60;;;;;;;25.93;49.13;92741.78;5007752;28;20219;-66
2022/08/06 07:43:30;;;;;;;12.07;11.07;;;;;;;26.30;48.40;92744.41;5007381;28;20194;-68
2022/08/06 07:45:59;;;;;;;12.55;11.45;;;;;;;27.02;47.25;92744.47;5004323;28;20199;-70
2022/08/06 07:48:46;;;;;;;12.07;10.93;;;;;;;26.98;46.14;92747.13;5004128;28;20199;-69
2022/08/06 07:51:13;;;;;;;10.75;9.85;;;;;;;26.73;46.00;92752.38;5006330;28;20206;-70
2022/08/06 07:53:41;;;;;;;11.70;10.75;;;;;;;27.10;45.36;92752.16;5005354;28;20238;-70
2022/08/06 07:56:08;;;;;;;11.38;10.48;;;;;;;27.23;45.29;92752.56;5007198;28;20202;-70
2022/08/06 07:58:36;;;;;;;11.23;10.43;;;;;;;27.15;44.41;92738.38;5005594;28;20215;-70
2022/08/06 08:01:02;;;;;;;11.77;10.88;;;;;;;27.17;44.14;92760.22;5005654;28;20218;-69
2022/08/06 08:06:28;;;;;;;10.85;10.05;;;;;;;27.12;44.20;92757.13;5046290;28;20200;-69
2022/08/06 08:09:02;;;;;;;11.15;10.20;;;;;;;27.22;43.96;92757.19;5044309;28;20233;-70
2022/08/06 08:11:30;;;;;;;12.07;10.82;;;;;;;27.13;43.39;92742.59;5045628;28;20217;-67
2022/08/06 08:13:58;;;;;;;11.60;10.57;;;;;;;26.81;43.95;92745.13;5044947;28;20230;-68
2022/08/06 08:16:25;;;;;;;10.52;9.73;;;;;;;27.23;43.91;92752.56;5046368;28;20205;-70
2022/08/06 08:18:50;;;;;;;10.60;9.65;;;;;;;27.47;40.30;92747.31;5045916;28;20217;-70
2022/08/06 08:21:16;;;;;;;14.07;10.05;;;;;;;27.83;39.75;92748.19;5043425;28;20193;-70
2022/08/06 08:23:45;;;;;;;13.05;10.70;;;;;;;27.62;41.17;92748.13;5044755;28;20233;-69
2022/08/06 08:26:10;;;;;;;10.48;9.52;;;;;;;27.32;42.10;92740.38;5045202;28;20353;-71
2022/08/06 08:28:36;;;;;;;10.63;9.80;;;;;;;27.46;43.14;92750.38;5045140;28;20220;-70
2022/08/06 08:31:03;;;;;;;11.23;10.35;;;;;;;27.73;41.34;92755.06;5044592;28;20269;-69
2022/08/06 08:33:29;;;;;;;12.18;10.98;;;;;;;27.53;42.01;92753.09;5045873;28;20312;-69
2022/08/06 08:35:55;;;;;;;9.43;8.73;;;;;;;28.04;37.89;92759.72;5045026;28;20180;-69
2022/08/06 08:38:21;;;;;;;10.23;9.23;;;;;;;27.94;38.45;92751.63;5043291;28;20198;-69
2022/08/06 08:40:49;;;;;;;9.48;8.85;;;;;;;28.05;39.66;92739.00;5045202;28;20213;-68
2022/08/06 08:43:26;;;;;;;9.70;9.10;;;;;;;28.37;38.37;92755.09;5046089;28;20251;-69
2022/08/06 08:45:51;;;;;;;9.52;8.73;;;;;;;28.15;37.42;92754.34;5045685;28;20253;-67
2022/08/06 08:48:24;;;;;;;9.95;9.15;;;;;;;28.35;36.68;92755.50;5045511;28;20198;-69
2022/08/06 08:50:50;;;;;;;9.23;8.65;;;;;;;28.15;37.96;92751.66;5045275;28;20214;-67
2022/08/06 08:53:24;;;;;;;10.85;9.90;;;;;;;28.29;37.99;92732.88;5046316;28;20209;-69
2022/08/06 08:55:49;;;;;;;10.00;9.20;;;;;;;28.54;37.84;92746.28;5025285;28;20215;-68
2022/08/06 08:58:15;;;;;;;9.35;8.65;;;;;;;28.32;37.54;92742.84;5028050;28;20225;-68
2022/08/06 09:00:40;;;;;;;9.43;8.73;;;;;;;28.70;38.12;92733.97;5028597;28;20238;-69
2022/08/06 09:03:06;;;;;;;10.65;9.85;;;;;;;28.80;37.70;92756.59;5029703;28;20229;-68
2022/08/06 09:05:33;;;;;;;9.13;8.50;;;;;;;28.72;37.01;92712.84;5047431;28;20232;-71
2022/08/06 09:08:01;;;;;;;11.05;9.38;;;;;;;29.00;36.82;92745.03;5049230;28;20190;-69
2022/08/06 09:10:26;;;;;;;9.88;9.05;;;;;;;29.00;36.55;92753.09;5031541;28;20990;-74
2022/08/06 09:12:52;;;;;;;9.73;8.38;;;;;;;29.06;34.83;92748.88;5028829;28;20198;-68
2022/08/06 09:15:17;;;;;;;8.20;7.70;;;;;;;28.53;35.29;92702.53;5039978;28;20256;-69
2022/08/06 09:17:47;;;;;;;9.77;9.07;;;;;;;28.38;37.71;92738.59;5039701;28;20198;-65
2022/08/06 09:20:13;;;;;;;10.10;9.13;;;;;;;28.28;36.62;92739.41;5039118;28;21111;-66
2022/08/06 09:22:38;;;;;;;9.25;8.50;;;;;;;28.89;36.96;92738.91;5040218;28;20197;-68
2022/08/06 09:25:04;;;;;;;10.27;9.38;;;;;;;29.20;35.86;92743.44;5040313;28;20269;-70
2022/08/06 09:27:34;;;;;;;9.30;8.40;;;;;;;29.29;34.70;92741.09;5042603;28;20218;-69
2022/08/06 09:30:03;;;;;;;9.80;9.10;;;;;;;29.13;35.03;92748.88;5037844;28;20244;-68
2022/08/06 09:32:46;;;;;;;9.30;8.50;;;;;;;28.22;35.62;92727.47;5037607;28;20190;-69
2022/08/06 09:35:22;;;;;;;9.13;8.50;;;;;;;28.04;36.54;92724.03;5043514;28;20226;-68
2022/08/06 09:38:02;;;;;;;9.23;8.55;;;;;;;28.72;35.29;92733.59;5044546;28;20250;-68
2022/08/06 09:40:28;;;;;;;9.00;8.40;;;;;;;28.75;37.65;92727.44;5037363;28;20255;-67
2022/08/06 09:42:53;;;;;;;9.48;8.77;;;;;;;29.18;35.35;92734.25;5042478;28;20196;-74
2022/08/06 09:45:21;;;;;;;9.65;8.90;;;;;;;28.88;35.93;92737.38;5046832;28;20233;-72
2022/08/06 09:47:48;;;;;;;9.13;8.43;;;;;;;29.01;35.34;92714.31;5048580;28;20194;-70
2022/08/06 09:50:14;;;;;;;9.32;8.63;;;;;;;29.42;34.95;92719.88;5045877;28;20222;-72
2022/08/06 09:52:39;;;;;;;10.48;9.57;;;;;;;29.34;34.58;92746.06;5042039;28;20221;-73
2022/08/06 09:55:05;;;;;;;10.07;9.23;;;;;;;29.45;34.34;92732.56;5045636;28;20245;-72
2022/08/06 09:57:45;;;;;;;9.15;8.55;;;;;;;29.52;33.88;92730.63;5046262;28;20264;-72
2022/08/06 10:00:11;;;;;;;9.32;8.65;;;;;;;29.60;33.50;92721.31;5060032;28;20244;-71
2022/08/06 10:02:38;;;;;;;9.82;9.23;;;;;;;29.19;34.35;92709.63;5044860;28;20234;-72
2022/08/06 10:05:13;;;;;;;9.55;8.75;;;;;;;29.56;34.83;92733.28;5045674;28;20223;-71
2022/08/06 10:07:39;;;;;;;8.90;8.30;;;;;;;29.56;33.40;92727.88;5046578;28;20186;-71
2022/08/06 10:10:06;;;;;;;9.73;9.02;;;;;;;29.86;33.82;92713.88;5045264;28;20224;-74
2022/08/06 10:12:32;;;;;;;8.90;8.23;;;;;;;29.91;33.83;92721.53;5046630;28;20254;-73
2022/08/06 10:14:59;;;;;;;9.60;8.75;;;;;;;30.13;33.57;92721.00;5044906;28;20289;-72
2022/08/06 10:17:25;;;;;;;9.38;8.77;;;;;;;29.91;32.62;92705.38;5046098;28;20249;-72
2022/08/06 10:20:12;;;;;;;9.07;8.48;;;;;;;30.19;34.46;92702.47;5043039;28;20249;-73
2022/08/06 10:22:54;;;;;;;9.60;8.95;;;;;;;30.41;33.48;92712.72;5045158;28;20190;-73
2022/08/06 10:25:21;;;;;;;9.98;9.07;;;;;;;30.42;32.76;92708.06;5044699;28;20260;-73
2022/08/06 10:27:47;;;;;;;9.60;8.95;;;;;;;30.36;33.44;92706.97;5045999;28;20289;-72
2022/08/06 10:30:13;;;;;;;9.90;9.10;;;;;;;30.30;33.08;92700.47;5044402;28;20249;-72
2022/08/06 10:33:01;;;;;;;9.27;8.63;;;;;;;30.34;33.56;92674.25;5046823;28;20216;-71
2022/08/06 10:35:26;;;;;;;9.23;8.52;;;;;;;30.20;32.30;92698.59;5043986;28;20218;-73
2022/08/06 10:37:58;;;;;;;9.57;8.80;;;;;;;30.31;33.15;92702.78;5045489;28;20190;-72
2022/08/06 10:40:24;;;;;;;10.38;9.68;;;;;;;30.00;31.94;92716.47;5045047;28;20230;-72
2022/08/06 10:42:52;;;;;;;8.93;8.32;;;;;;;29.79;32.41;92703.19;5043920;28;20191;-72
2022/08/06 10:45:18;;;;;;;10.50;9.52;;;;;;;30.02;31.70;92712.25;5043389;28;21089;-73
2022/08/06 10:47:45;;;;;;;9.20;8.50;;;;;;;30.06;32.95;92707.56;5044399;28;20182;-72
2022/08/06 10:50:13;;;;;;;9.52;8.63;;;;;;;29.92;31.79;92696.16;5044614;28;20248;-71
2022/08/06 10:52:40;;;;;;;10.55;9.60;;;;;;;30.18;31.99;92706.34;5044406;28;20299;-72
2022/08/06 10:55:08;;;;;;;9.68;8.77;;;;;;;30.23;30.79;92693.22;5042257;28;20238;-72
2022/08/06 10:57:34;;;;;;;9.75;8.25;;;;;;;30.30;30.84;92689.72;5045288;28;20178;-75
2022/08/06 11:00:01;;;;;;;9.52;8.73;;;;;;;30.64;31.78;92693.22;5042043;28;20317;-73
2022/08/06 11:03:05;;;;;;;9.27;8.40;;;;;;;30.16;31.22;92697.88;5044120;28;20244;-72
2022/08/06 11:05:36;;;;;;;8.38;7.78;;;;;;;30.70;31.56;92686.22;5040546;28;20218;-73
2022/08/06 11:08:20;;;;;;;8.98;8.35;;;;;;;31.34;30.90;92697.84;5043163;28;20178;-72
2022/08/06 11:11:04;;;;;;;8.25;7.60;;;;;;;31.50;30.70;92694.56;5043185;28;20210;-72
2022/08/06 11:13:36;;;;;;;9.23;8.50;;;;;;;30.91;30.90;92691.44;5043621;28;20177;-72
2022/08/06 11:16:01;;;;;;;9.55;8.93;;;;;;;30.65;31.16;92667.78;5043523;28;20201;-71
2022/08/06 11:18:27;;;;;;;9.02;8.45;;;;;;;30.46;30.69;92685.31;5045100;28;20249;-71
2022/08/06 11:20:52;;;;;;;15.15;13.65;;;;;;;30.31;32.04;92693.91;5042756;28;20214;-73
2022/08/06 11:23:17;;;;;;;9.25;8.40;;;;;;;30.06;31.03;92687.94;5044019;28;20254;-75
2022/08/06 11:25:47;;;;;;;9.68;8.98;;;;;;;30.00;31.22;92678.78;5041606;28;20196;-71
2022/08/06 11:28:13;;;;;;;9.02;8.30;;;;;;;30.01;31.99;92683.00;5039393;28;20208;-71
2022/08/06 11:30:48;;;;;;;9.77;9.07;;;;;;;29.93;32.31;92654.59;5040104;28;20230;-70
2022/08/06 11:33:42;;;;;;;12.82;9.27;;;;;;;30.35;31.08;92683.91;5038138;28;20297;-71
2022/08/06 11:36:24;;;;;;;9.80;9.10;;;;;;;30.48;30.39;92680.28;5023408;28;20286;-71
2022/08/06 11:38:52;;;;;;;9.82;9.05;;;;;;;30.32;32.13;92690.09;5021554;28;20222;-70
2022/08/06 11:41:24;;;;;;;8.77;8.20;;;;;;;30.59;30.64;92675.56;5023786;28;20191;-72
2022/08/06 11:43:53;;;;;;;9.00;8.40;;;;;;;30.76;30.17;92679.25;5026128;28;20294;-71
2022/08/06 11:46:24;;;;;;;9.27;8.45;;;;;;;31.13;30.71;92681.91;5042761;28;20195;-71